createdAt,value
2022-12-09T00:01:15.863Z,2.05
2022-12-09T00:03:44.908Z,1.52
2022-12-09T00:06:24.739Z,2.13
2022-12-09T00:08:54.698Z,0.88
2022-12-09T00:11:23.228Z,2.17
2022-12-09T00:13:51.556Z,1.05
2022-12-09T00:16:20.442Z,1.75
2022-12-09T00:18:49.114Z,2.45
2022-12-09T00:21:26.569Z,1.35
2022-12-09T00:23:56.215Z,1.35
2022-12-09T00:26:26.055Z,1.27
2022-12-09T00:28:54.141Z,1.42
2022-12-09T00:31:25.367Z,1.38
2022-12-09T00:33:58.406Z,1.38
2022-12-09T00:36:27.859Z,0.98
2022-12-09T00:38:57.385Z,0.88
2022-12-09T00:41:24.634Z,1.25
2022-12-09T00:43:52.682Z,0.98
2022-12-09T00:46:19.800Z,1.55
2022-12-09T00:48:48.899Z,1.55
2022-12-09T00:51:22.529Z,2.28
2022-12-09T00:53:54.690Z,0.85
2022-12-09T00:56:26.430Z,1.48
2022-12-09T00:58:53.821Z,1.35
2022-12-09T01:01:23.114Z,1.33
2022-12-09T01:03:51.387Z,1.60
2022-12-09T01:06:21.576Z,2.13
2022-12-09T01:08:49.322Z,1.53
2022-12-09T01:11:27.937Z,1.63
2022-12-09T01:14:00.662Z,1.23
2022-12-09T01:16:33.485Z,1.55
2022-12-09T01:19:05.872Z,1.00
2022-12-09T01:21:34.289Z,1.30
2022-12-09T01:24:13.738Z,1.25
2022-12-09T01:26:41.754Z,1.52
2022-12-09T01:29:09.030Z,1.77
2022-12-09T01:31:38.227Z,1.25
2022-12-09T01:34:05.297Z,1.48
2022-12-09T01:36:33.302Z,1.05
2022-12-09T01:39:00.817Z,2.53
2022-12-09T01:41:30.762Z,1.52
2022-12-09T01:44:16.198Z,3.15
2022-12-09T01:46:46.142Z,2.17
2022-12-09T01:49:22.265Z,1.95
2022-12-09T01:52:01.271Z,1.85
2022-12-09T01:54:30.177Z,2.20
2022-12-09T01:56:59.176Z,2.28
2022-12-09T01:59:27.291Z,1.77
2022-12-09T02:02:00.286Z,2.53
2022-12-09T02:04:31.576Z,2.13
2022-12-09T02:07:02.197Z,1.75
2022-12-09T02:09:30.792Z,2.13
2022-12-09T02:12:14.036Z,3.38
2022-12-09T02:14:46.109Z,1.88
2022-12-09T02:20:31.162Z,1.30
2022-12-09T02:23:03.548Z,1.70
2022-12-09T02:25:34.309Z,2.28
2022-12-09T02:28:38.618Z,1.70
2022-12-09T02:31:25.883Z,2.30
2022-12-09T02:33:53.947Z,1.83
2022-12-09T02:36:27.860Z,2.08
2022-12-09T02:39:00.310Z,3.50
2022-12-09T02:41:34.068Z,2.90
2022-12-09T02:44:10.391Z,2.35
2022-12-09T02:46:38.225Z,3.75
2022-12-09T02:49:09.476Z,2.15
2022-12-09T02:51:42.465Z,2.45
2022-12-09T02:54:16.050Z,2.70
2022-12-09T02:56:55.717Z,3.00
2022-12-09T02:59:26.370Z,2.40
2022-12-09T03:02:20.831Z,2.22
2022-12-09T03:05:21.270Z,2.17
2022-12-09T03:08:10.437Z,2.75
2022-12-09T03:10:53.635Z,3.70
2022-12-09T03:13:26.747Z,2.63
2022-12-09T03:16:01.808Z,1.95
2022-12-09T03:18:30.151Z,3.17
2022-12-09T03:21:00.921Z,2.97
2022-12-09T03:23:31.654Z,3.15
2022-12-09T03:26:00.194Z,2.45
2022-12-09T03:28:35.861Z,2.55
2022-12-09T03:31:10.624Z,2.88
2022-12-09T03:33:42.660Z,3.63
2022-12-09T03:36:13.725Z,2.53
2022-12-09T03:38:42.117Z,2.63
2022-12-09T03:41:24.347Z,1.95
2022-12-09T03:44:13.905Z,3.33
2022-12-09T03:46:41.103Z,4.32
2022-12-09T03:49:09.308Z,2.78
2022-12-09T03:52:00.272Z,3.28
2022-12-09T03:54:36.758Z,3.65
2022-12-09T03:57:04.922Z,3.30
2022-12-09T03:59:35.202Z,3.28
2022-12-09T04:02:05.964Z,3.30
2022-12-09T04:04:34.829Z,3.63
2022-12-09T04:07:02.607Z,3.63
2022-12-09T04:09:31.533Z,3.92
2022-12-09T04:11:58.604Z,2.67
2022-12-09T04:14:25.464Z,2.78
2022-12-09T04:16:54.196Z,4.03
2022-12-09T04:19:22.465Z,3.05
2022-12-09T04:21:49.462Z,2.35
2022-12-09T04:24:18.116Z,3.22
2022-12-09T04:26:47.512Z,2.75
2022-12-09T04:29:14.793Z,3.40
2022-12-09T04:31:42.255Z,5.93
2022-12-09T04:34:09.783Z,3.88
2022-12-09T04:36:39.671Z,4.38
2022-12-09T04:39:07.008Z,3.15
2022-12-09T04:41:35.363Z,3.47
2022-12-09T04:44:02.653Z,4.75
2022-12-09T04:46:31.024Z,3.10
2022-12-09T04:48:59.892Z,3.05
2022-12-09T04:51:29.610Z,6.25
2022-12-09T04:53:59.248Z,3.45
2022-12-09T04:56:29.520Z,5.47
2022-12-09T04:58:56.762Z,5.35
2022-12-09T05:01:30.319Z,5.80
2022-12-09T05:03:58.731Z,4.28
2022-12-09T05:06:26.796Z,4.35
2022-12-09T05:08:54.780Z,4.35
2022-12-09T05:11:24.122Z,3.78
2022-12-09T05:16:21.421Z,3.38
2022-12-09T05:18:50.805Z,3.35
2022-12-09T05:21:21.827Z,3.92
2022-12-09T05:23:50.369Z,4.85
2022-12-09T05:26:19.915Z,4.00
2022-12-09T05:28:46.989Z,5.65
2022-12-09T05:31:17.132Z,5.05
2022-12-09T05:33:46.854Z,5.20
2022-12-09T05:36:16.317Z,3.75
2022-12-09T05:38:45.169Z,4.13
2022-12-09T05:41:12.814Z,4.90
2022-12-09T05:43:41.748Z,4.82
2022-12-09T05:46:09.428Z,4.05
2022-12-09T05:48:38.513Z,4.32
2022-12-09T05:51:11.776Z,5.38
2022-12-09T05:53:40.769Z,3.88
2022-12-09T05:56:08.289Z,4.78
2022-12-09T05:58:35.647Z,3.38
2022-12-09T06:01:08.852Z,4.78
2022-12-09T06:03:37.929Z,4.75
2022-12-09T06:06:11.736Z,5.30
2022-12-09T06:08:43.034Z,3.90
2022-12-09T06:11:13.671Z,3.45
2022-12-09T06:13:40.869Z,5.55
2022-12-09T06:16:09.107Z,3.08
2022-12-09T06:18:38.562Z,3.55
2022-12-09T06:21:12.312Z,3.78
2022-12-09T06:23:43.547Z,4.22
2022-12-09T06:26:21.699Z,4.55
2022-12-09T06:28:51.006Z,5.10
2022-12-09T06:31:18.372Z,5.32
2022-12-09T06:33:55.875Z,5.35
2022-12-09T06:36:25.535Z,4.68
2022-12-09T06:38:55.471Z,4.47
2022-12-09T06:41:23.154Z,5.18
2022-12-09T06:43:50.223Z,4.35
2022-12-09T06:46:23.328Z,5.20
2022-12-09T06:48:53.686Z,4.60
2022-12-09T06:51:23.595Z,3.95
2022-12-09T06:53:52.137Z,3.55
2022-12-09T06:56:19.647Z,4.72
2022-12-09T06:58:48.428Z,4.40
2022-12-09T07:01:21.770Z,3.70
2022-12-09T07:03:51.821Z,4.40
2022-12-09T07:06:32.152Z,3.83
2022-12-09T07:09:04.065Z,3.80
2022-12-09T07:11:32.818Z,3.38
2022-12-09T07:14:00.506Z,3.85
2022-12-09T07:16:29.467Z,4.18
2022-12-09T07:18:56.599Z,4.10
2022-12-09T07:21:25.114Z,3.25
2022-12-09T07:23:52.780Z,3.90
2022-12-09T07:26:22.178Z,3.53
2022-12-09T07:28:51.184Z,3.88
2022-12-09T07:31:24.781Z,4.43
2022-12-09T07:33:54.287Z,2.83
2022-12-09T07:36:25.267Z,3.67
2022-12-09T07:39:06.388Z,3.30
2022-12-09T07:44:02.621Z,8.95
2022-12-09T07:46:30.776Z,10.18
2022-12-09T07:48:58.649Z,4.50
2022-12-09T07:51:29.528Z,4.75
2022-12-09T07:53:58.750Z,4.38
2022-12-09T07:56:28.575Z,2.22
2022-12-09T07:58:57.461Z,3.30
2022-12-09T08:01:29.356Z,3.40
2022-12-09T08:03:57.118Z,3.53
2022-12-09T08:06:26.460Z,2.88
2022-12-09T08:08:54.753Z,2.85
2022-12-09T08:11:27.455Z,3.13
2022-12-09T08:13:58.336Z,3.45
2022-12-09T08:16:27.529Z,3.50
2022-12-09T08:18:55.546Z,2.78
2022-12-09T08:21:29.981Z,2.92
2022-12-09T08:24:00.658Z,3.90
2022-12-09T08:26:30.134Z,3.75
2022-12-09T08:28:59.175Z,6.57
2022-12-09T08:31:28.551Z,26.15
2022-12-09T08:33:55.874Z,19.55
2022-12-09T08:36:28.205Z,9.77
2022-12-09T08:38:58.757Z,6.60
2022-12-09T08:41:38.544Z,5.43
2022-12-09T08:44:19.431Z,5.53
2022-12-09T08:46:51.918Z,4.35
2022-12-09T08:49:23.347Z,5.10
2022-12-09T08:51:54.649Z,4.97
2022-12-09T08:54:23.270Z,4.72
2022-12-09T08:56:53.653Z,3.80
2022-12-09T08:59:23.046Z,4.22
2022-12-09T09:01:50.432Z,5.25
2022-12-09T09:04:20.706Z,3.40
2022-12-09T09:06:51.864Z,7.93
2022-12-09T09:09:22.304Z,20.85
2022-12-09T09:11:49.614Z,12.95
2022-12-09T09:14:16.678Z,7.78
2022-12-09T09:16:45.800Z,6.00
2022-12-09T09:19:20.411Z,3.72
2022-12-09T09:21:49.890Z,3.72
2022-12-09T09:24:21.615Z,2.90
2022-12-09T09:26:50.466Z,3.83
2022-12-09T09:29:19.787Z,2.65
2022-12-09T09:31:54.719Z,3.42
2022-12-09T09:34:28.420Z,3.50
2022-12-09T09:36:57.829Z,3.17
2022-12-09T09:39:25.577Z,2.78
2022-12-09T09:41:55.483Z,3.25
2022-12-09T09:44:25.493Z,3.88
2022-12-09T09:46:55.840Z,3.38
2022-12-09T09:50:00.915Z,6.35
2022-12-09T09:52:31.750Z,16.92
2022-12-09T09:55:06.197Z,21.08
2022-12-09T09:58:01.576Z,9.10
2022-12-09T10:00:53.377Z,6.50
2022-12-09T10:03:45.219Z,4.65
2022-12-09T10:06:59.164Z,5.15
2022-12-09T10:10:05.491Z,3.72
2022-12-09T10:12:38.117Z,4.43
2022-12-09T10:15:15.090Z,3.42
2022-12-09T10:17:56.542Z,4.88
2022-12-09T10:20:28.672Z,2.80
2022-12-09T10:23:06.185Z,3.55
2022-12-09T10:25:38.683Z,3.08
2022-12-09T10:28:21.679Z,4.38
2022-12-09T10:30:52.618Z,17.83
2022-12-09T10:33:31.481Z,17.13
2022-12-09T10:36:00.374Z,5.80
2022-12-09T10:38:30.318Z,5.35
2022-12-09T10:41:38.898Z,3.53
2022-12-09T10:44:23.941Z,2.90
2022-12-09T10:47:07.035Z,3.88
2022-12-09T10:49:36.173Z,4.38
2022-12-09T10:52:04.780Z,2.88
2022-12-09T10:54:44.761Z,2.55
2022-12-09T10:57:13.629Z,3.72
2022-12-09T10:59:56.247Z,3.63
2022-12-09T11:02:26.389Z,3.17
2022-12-09T11:04:53.610Z,3.08
2022-12-09T11:07:25.883Z,2.50
2022-12-09T11:09:54.440Z,3.13
2022-12-09T11:12:33.495Z,3.40
2022-12-09T11:15:35.382Z,3.13
2022-12-09T11:18:19.144Z,3.55
2022-12-09T11:21:06.085Z,3.20
2022-12-09T11:23:36.812Z,2.83
2022-12-09T11:26:07.792Z,3.42
2022-12-09T11:28:38.517Z,7.13
2022-12-09T11:31:28.884Z,9.40
2022-12-09T11:34:00.342Z,5.28
2022-12-09T11:36:40.691Z,4.97
2022-12-09T11:39:35.616Z,3.33
2022-12-09T11:42:17.555Z,3.78
2022-12-09T11:44:56.668Z,4.22
2022-12-09T11:47:27.786Z,3.83
2022-12-09T11:50:12.342Z,3.28
2022-12-09T11:52:43.795Z,2.67
2022-12-09T11:55:21.267Z,3.25
2022-12-09T11:58:04.010Z,10.82
2022-12-09T12:00:59.869Z,10.50
2022-12-09T12:03:48.128Z,5.18
2022-12-09T12:06:29.176Z,4.03
2022-12-09T12:09:07.788Z,3.63
2022-12-09T12:12:08.945Z,4.05
2022-12-09T12:14:38.519Z,3.30
2022-12-09T12:17:19.886Z,4.00
2022-12-09T12:19:51.668Z,2.95
2022-12-09T12:22:50.177Z,4.90
2022-12-09T12:25:43.483Z,4.55
2022-12-09T12:28:51.810Z,4.43
2022-12-09T12:31:31.674Z,5.10
2022-12-09T12:34:25.997Z,5.38
2022-12-09T12:36:57.544Z,4.70
2022-12-09T12:39:56.599Z,4.32
2022-12-09T12:43:22.604Z,6.50
2022-12-09T12:46:17.850Z,4.88
2022-12-09T12:49:11.482Z,6.35
2022-12-09T12:51:57.100Z,5.40
2022-12-09T12:54:59.935Z,5.80
2022-12-09T12:57:43.837Z,6.07
2022-12-09T13:00:16.281Z,5.35
2022-12-09T13:02:48.866Z,5.32
2022-12-09T13:05:29.883Z,5.57
2022-12-09T13:08:15.878Z,6.43
2022-12-09T13:10:50.760Z,7.30
2022-12-09T13:13:30.761Z,5.32
2022-12-09T13:16:20.553Z,6.55
2022-12-09T13:18:49.203Z,5.82
2022-12-09T13:21:18.709Z,6.20
2022-12-09T13:24:27.871Z,5.53
2022-12-09T13:27:04.175Z,6.70
2022-12-09T13:30:25.870Z,5.18
2022-12-09T13:33:00.412Z,3.58
2022-12-09T13:35:38.065Z,4.68
2022-12-09T13:38:42.230Z,3.88
2022-12-09T13:41:27.525Z,3.80
2022-12-09T13:43:57.014Z,4.13
2022-12-09T13:46:28.582Z,3.88
2022-12-09T13:48:56.925Z,3.85
2022-12-09T13:51:24.179Z,4.30
2022-12-09T13:54:03.522Z,5.55
2022-12-09T13:56:34.536Z,4.82
2022-12-09T13:59:26.466Z,3.53
2022-12-09T14:02:11.780Z,3.13
2022-12-09T14:05:05.948Z,4.68
2022-12-09T14:07:47.788Z,3.65
2022-12-09T14:10:38.371Z,5.93
2022-12-09T14:13:30.340Z,4.40
2022-12-09T14:16:29.112Z,5.35
2022-12-09T14:18:58.423Z,5.45
2022-12-09T14:21:30.918Z,5.28
2022-12-09T14:24:07.855Z,4.93
2022-12-09T14:27:09.213Z,5.88
2022-12-09T14:30:23.932Z,4.47
2022-12-09T14:32:52.009Z,5.28
2022-12-09T14:35:44.731Z,6.32
2022-12-09T14:42:00.850Z,5.05
2022-12-09T14:44:38.175Z,3.08
2022-12-09T14:47:15.668Z,4.75
2022-12-09T14:49:48.797Z,5.35
2022-12-09T14:52:29.931Z,5.60
2022-12-09T14:55:00.442Z,5.10
2022-12-09T14:57:32.782Z,4.80
2022-12-09T15:00:00.907Z,3.53
2022-12-09T15:02:30.759Z,4.50
2022-12-09T15:07:32.459Z,11.05
2022-12-09T15:10:01.865Z,9.65
2022-12-09T15:12:32.841Z,5.20
2022-12-09T15:15:12.594Z,4.60
2022-12-09T15:17:53.376Z,4.28
2022-12-09T15:20:23.776Z,4.20
2022-12-09T15:22:53.554Z,4.30
2022-12-09T15:25:22.212Z,3.53
2022-12-09T15:28:02.472Z,4.28
2022-12-09T15:30:33.243Z,3.08
2022-12-09T15:33:04.778Z,4.30
2022-12-09T15:35:33.817Z,4.38
2022-12-09T15:38:07.439Z,5.70
2022-12-09T15:40:37.639Z,4.65
2022-12-09T15:43:10.473Z,5.38
2022-12-09T15:45:43.202Z,14.07
2022-12-09T15:48:21.187Z,17.27
2022-12-09T15:50:58.040Z,8.00
2022-12-09T15:53:43.760Z,4.85
2022-12-09T15:56:24.361Z,5.00
2022-12-09T15:58:55.306Z,5.40
2022-12-09T16:01:28.264Z,6.72
2022-12-09T16:03:58.933Z,5.18
2022-12-09T16:06:32.788Z,5.65
2022-12-09T16:09:01.160Z,3.90
2022-12-09T16:11:39.398Z,5.15
2022-12-09T16:14:09.436Z,4.53
2022-12-09T16:17:01.365Z,4.93
2022-12-09T16:19:31.232Z,5.30
2022-12-09T16:22:05.802Z,4.07
2022-12-09T16:25:06.203Z,4.40
2022-12-09T16:27:29.541Z,5.28
2022-12-09T16:30:04.535Z,4.70
2022-12-09T16:32:40.608Z,5.47
2022-12-09T16:35:11.702Z,7.75
2022-12-09T16:40:26.289Z,3.00
2022-12-09T16:43:14.171Z,4.07
2022-12-09T16:45:47.705Z,3.45
2022-12-09T16:48:17.316Z,5.90
2022-12-09T16:51:14.074Z,5.00
2022-12-09T16:53:45.523Z,4.30
2022-12-09T16:56:21.100Z,4.57
2022-12-09T16:58:49.380Z,3.85
2022-12-09T17:01:18.483Z,4.88
2022-12-09T17:03:52.433Z,4.60
2022-12-09T17:06:21.822Z,4.40
2022-12-09T17:08:48.714Z,4.82
2022-12-09T17:11:18.055Z,5.22
2022-12-09T17:13:44.860Z,6.18
2022-12-09T17:16:11.799Z,6.13
2022-12-09T17:18:39.771Z,6.25
2022-12-09T17:21:10.556Z,5.15
2022-12-09T17:23:40.086Z,5.53
2022-12-09T17:26:11.227Z,4.63
2022-12-09T17:28:39.739Z,6.32
2022-12-09T17:31:12.443Z,5.32
2022-12-09T17:33:43.826Z,4.95
2022-12-09T17:36:12.526Z,4.95
2022-12-09T17:38:41.151Z,4.97
2022-12-09T17:41:15.863Z,4.70
2022-12-09T17:43:47.067Z,4.38
2022-12-09T17:46:14.228Z,5.03
2022-12-09T17:48:42.282Z,5.22
2022-12-09T17:51:16.041Z,3.75
2022-12-09T17:53:45.600Z,4.03
2022-12-09T17:56:19.380Z,4.78
2022-12-09T17:58:53.656Z,5.53
2022-12-09T18:01:23.827Z,7.35
2022-12-09T18:04:00.457Z,5.57
2022-12-09T18:06:35.768Z,4.68
2022-12-09T18:09:10.930Z,4.60
2022-12-09T18:11:39.592Z,4.03
2022-12-09T18:14:07.037Z,4.90
2022-12-09T18:16:34.025Z,4.47
2022-12-09T18:19:03.275Z,4.15
2022-12-09T18:21:30.567Z,5.13
2022-12-09T18:23:57.288Z,5.88
2022-12-09T18:26:30.182Z,6.32
2022-12-09T18:28:59.168Z,4.63
2022-12-09T18:31:27.399Z,8.00
2022-12-09T18:33:56.237Z,5.82
2022-12-09T18:36:26.344Z,6.55
2022-12-09T18:38:54.963Z,3.55
2022-12-09T18:41:24.594Z,4.95
2022-12-09T18:43:54.302Z,5.57
2022-12-09T18:46:25.954Z,5.78
2022-12-09T18:49:08.274Z,5.85
2022-12-09T18:51:35.555Z,6.20
2022-12-09T18:54:04.213Z,5.93
2022-12-09T18:56:33.388Z,5.72
2022-12-09T18:59:09.242Z,5.65
2022-12-09T19:01:40.584Z,6.85
2022-12-09T19:04:12.656Z,7.25
2022-12-09T19:06:41.489Z,6.57
2022-12-09T19:09:16.621Z,6.18
2022-12-09T19:11:46.242Z,9.65
2022-12-09T19:14:14.258Z,11.98
2022-12-09T19:16:42.495Z,13.00
2022-12-09T19:19:16.700Z,11.25
2022-12-09T19:21:45.777Z,7.82
2022-12-09T19:24:16.754Z,6.95
2022-12-09T19:29:13.579Z,6.22
2022-12-09T19:31:45.484Z,7.35
2022-12-09T19:34:16.634Z,7.90
2022-12-09T19:36:46.017Z,8.45
2022-12-09T19:39:14.545Z,6.53
2022-12-09T19:41:43.903Z,8.80
2022-12-09T19:44:15.395Z,7.80
2022-12-09T19:46:46.868Z,8.82
2022-12-09T19:49:15.716Z,8.57
2022-12-09T19:51:44.315Z,11.80
2022-12-09T19:54:11.561Z,12.45
2022-12-09T19:56:45.254Z,13.02
2022-12-09T19:59:14.470Z,11.45
2022-12-09T20:01:43.443Z,9.90
2022-12-09T20:04:46.905Z,7.95
2022-12-09T20:07:07.793Z,7.25
2022-12-09T20:09:37.414Z,7.35
2022-12-09T20:12:04.572Z,6.20
2022-12-09T20:14:31.521Z,8.82
2022-12-09T20:16:59.861Z,7.70
2022-12-09T20:19:26.798Z,6.15
2022-12-09T20:21:55.267Z,6.32
2022-12-09T20:24:23.471Z,7.00
2022-12-09T20:26:52.050Z,8.38
2022-12-09T20:29:20.044Z,14.57
2022-12-09T20:31:46.987Z,12.65
2022-12-09T20:34:16.555Z,7.97
2022-12-09T20:36:46.003Z,5.95
2022-12-09T20:39:18.189Z,6.30
2022-12-09T20:41:47.741Z,7.03
2022-12-09T20:44:17.147Z,6.10
2022-12-09T20:46:52.046Z,6.60
2022-12-09T20:49:26.391Z,12.65
2022-12-09T20:51:54.292Z,13.13
2022-12-09T20:54:23.159Z,9.45
2022-12-09T20:56:53.146Z,7.78
2022-12-09T20:59:20.633Z,7.38
2022-12-09T21:01:49.065Z,5.68
2022-12-09T21:04:17.535Z,5.80
2022-12-09T21:06:44.573Z,6.55
2022-12-09T21:09:18.476Z,6.80
2022-12-09T21:11:48.244Z,7.47
2022-12-09T21:14:18.272Z,5.20
2022-12-09T21:16:50.203Z,4.85
2022-12-09T21:19:26.074Z,5.63
2022-12-09T21:21:54.360Z,7.05
2022-12-09T21:24:23.808Z,4.43
2022-12-09T21:26:53.713Z,5.55
2022-12-09T21:29:22.909Z,5.90
2022-12-09T21:31:54.431Z,4.53
2022-12-09T21:34:24.274Z,5.47
2022-12-09T21:36:51.563Z,5.15
2022-12-09T21:39:20.025Z,3.90
2022-12-09T21:41:47.049Z,5.75
2022-12-09T21:44:18.675Z,4.50
2022-12-09T21:46:46.159Z,5.43
2022-12-09T21:49:15.986Z,4.70
2022-12-09T21:51:43.546Z,5.40
2022-12-09T21:54:11.888Z,7.30
2022-12-09T21:56:40.308Z,5.63
2022-12-09T21:59:07.512Z,9.15
2022-12-09T22:01:40.044Z,9.32
2022-12-09T22:04:10.441Z,8.95
2022-12-09T22:06:39.548Z,7.80
2022-12-09T22:09:08.014Z,5.35
2022-12-09T22:11:38.855Z,6.90
2022-12-09T22:14:09.071Z,6.57
2022-12-09T22:16:40.750Z,6.55
2022-12-09T22:19:09.143Z,7.85
2022-12-09T22:21:37.419Z,6.18
2022-12-09T22:24:06.632Z,5.97
2022-12-09T22:26:36.420Z,6.75
2022-12-09T22:29:06.725Z,5.28
2022-12-09T22:31:37.517Z,7.38
2022-12-09T22:34:19.682Z,5.03
2022-12-09T22:36:48.802Z,6.13
2022-12-09T22:39:19.584Z,6.50
2022-12-09T22:41:47.754Z,5.22
2022-12-09T22:44:16.984Z,6.75
2022-12-09T22:46:44.580Z,6.35
2022-12-09T22:49:15.087Z,4.20
2022-12-09T22:51:43.761Z,4.85
2022-12-09T22:54:11.111Z,6.28
2022-12-09T22:56:41.077Z,6.82
2022-12-09T22:59:10.257Z,6.25
2022-12-09T23:01:37.759Z,4.68
2022-12-09T23:04:07.764Z,5.85
2022-12-09T23:06:38.529Z,5.45
2022-12-09T23:09:07.385Z,7.18
2022-12-09T23:11:35.543Z,5.50
2022-12-09T23:14:04.142Z,5.25
2022-12-09T23:16:31.024Z,5.13
2022-12-09T23:18:59.443Z,4.88
2022-12-09T23:21:33.907Z,7.97
2022-12-09T23:24:05.520Z,12.60
2022-12-09T23:26:36.802Z,12.60
2022-12-09T23:29:05.944Z,9.60
2022-12-09T23:31:37.556Z,7.03
2022-12-09T23:34:06.801Z,7.20
2022-12-09T23:36:38.352Z,6.60
2022-12-09T23:41:40.478Z,4.15
2022-12-09T23:44:13.287Z,3.75
2022-12-09T23:46:40.660Z,5.88
2022-12-09T23:49:09.642Z,5.90
2022-12-09T23:51:39.771Z,5.57
2022-12-09T23:54:11.057Z,4.63
2022-12-09T23:56:39.922Z,6.57
2022-12-09T23:59:11.344Z,6.10
